createdAt,value
2018-08-04T00:00:01.020Z,806.07
2018-08-04T00:00:05.220Z,806.1
2018-08-04T00:00:09.315Z,806.1
2018-08-04T00:00:13.304Z,806.09
2018-08-04T00:00:17.501Z,806.02
2018-08-04T00:00:21.705Z,806.09
2018-08-04T00:00:26.034Z,806.04
2018-08-04T00:00:30.345Z,806.07
2018-08-04T00:00:34.435Z,806.11
2018-08-04T00:00:38.526Z,806.08
2018-08-04T00:00:42.747Z,806.05
2018-08-04T00:00:47.056Z,806.08
2018-08-04T00:00:51.267Z,806.06
2018-08-04T00:00:55.361Z,806.08
2018-08-04T00:00:59.452Z,806.05
2018-08-04T00:01:03.560Z,806.04
2018-08-04T00:01:07.862Z,806.01
2018-08-04T00:01:11.740Z,806.07
2018-08-04T00:01:16.046Z,806.05
2018-08-04T00:01:20.137Z,806.02
2018-08-04T00:01:24.229Z,806.05
2018-08-04T00:01:28.427Z,806.05
2018-08-04T00:01:32.626Z,806.05
2018-08-04T00:01:36.934Z,806.06
2018-08-04T00:01:41.143Z,806.08
2018-08-04T00:01:45.450Z,806.06
2018-08-04T00:01:49.660Z,806.05
2018-08-04T00:01:53.990Z,806.07
2018-08-04T00:01:58.609Z,806.03
2018-08-04T00:02:03.514Z,806.05
2018-08-04T00:02:08.320Z,806.04
2018-08-04T00:02:14.546Z,806.03
2018-08-04T00:02:18.748Z,806.06
2018-08-04T00:02:22.734Z,806.04
2018-08-04T00:02:26.612Z,806.05
2018-08-04T00:02:30.811Z,806
2018-08-04T00:02:34.903Z,806.03
2018-08-04T00:02:39.094Z,805.99
2018-08-04T00:02:43.186Z,806.03
2018-08-04T00:02:47.436Z,806.01
2018-08-04T00:02:51.527Z,806
2018-08-04T00:02:55.717Z,806
2018-08-04T00:03:00.030Z,806.02
2018-08-04T00:03:04.236Z,806.04
2018-08-04T00:03:08.541Z,806
2018-08-04T00:03:12.752Z,806.02
2018-08-04T00:03:17.060Z,805.98
2018-08-04T00:03:21.390Z,805.99
2018-08-04T00:03:25.705Z,805.98
2018-08-04T00:03:29.902Z,805.99
2018-08-04T00:03:34.101Z,805.98
2018-08-04T00:03:38.415Z,805.98
2018-08-04T00:03:42.608Z,805.99
2018-08-04T00:03:46.802Z,805.98
2018-08-04T00:03:51.097Z,805.97
2018-08-04T00:03:55.299Z,805.98
2018-08-04T00:03:59.284Z,805.98
2018-08-04T00:04:03.483Z,805.98
2018-08-04T00:04:07.572Z,805.99
2018-08-04T00:04:11.658Z,805.94
2018-08-04T00:04:15.741Z,805.97
2018-08-04T00:04:19.938Z,805.97
2018-08-04T00:04:23.920Z,805.96
2018-08-04T00:04:28.027Z,805.95
2018-08-04T00:04:32.341Z,805.91
2018-08-04T00:04:36.668Z,805.94
2018-08-04T00:04:40.756Z,805.94
2018-08-04T00:04:44.964Z,805.94
2018-08-04T00:04:49.164Z,805.88
2018-08-04T00:04:53.473Z,805.92
2018-08-04T00:04:57.772Z,805.96
2018-08-04T00:05:01.969Z,805.96
2018-08-04T00:05:06.066Z,805.95
2018-08-04T00:05:10.163Z,805.92
2018-08-04T00:05:14.366Z,805.91
2018-08-04T00:05:18.667Z,805.93
2018-08-04T00:05:22.979Z,805.93
2018-08-04T00:05:27.273Z,805.95
2018-08-04T00:05:31.604Z,805.93
2018-08-04T00:05:35.801Z,805.92
2018-08-04T00:05:40.002Z,805.93
2018-08-04T00:05:44.198Z,805.9
2018-08-04T00:05:48.285Z,805.93
2018-08-04T00:05:52.589Z,805.9
2018-08-04T00:05:56.781Z,805.9
2018-08-04T00:06:01.091Z,805.92
2018-08-04T00:06:05.335Z,805.94
2018-08-04T00:06:09.115Z,805.89
2018-08-04T00:06:13.324Z,805.93
2018-08-04T00:06:17.524Z,805.94
2018-08-04T00:06:21.725Z,805.91
2018-08-04T00:06:25.925Z,805.91
2018-08-04T00:06:30.223Z,805.89
2018-08-04T00:06:34.520Z,805.89
2018-08-04T00:06:38.714Z,805.89
2018-08-04T00:06:42.904Z,805.91
2018-08-04T00:06:47.211Z,805.9
2018-08-04T00:06:51.412Z,805.92
2018-08-04T00:06:55.610Z,805.89
2018-08-04T00:06:59.809Z,805.92
2018-08-04T00:07:03.951Z,805.88
2018-08-04T00:07:08.146Z,805.85
2018-08-04T00:07:12.453Z,805.9
2018-08-04T00:07:16.766Z,805.88
2018-08-04T00:07:21.071Z,805.87
2018-08-04T00:07:25.267Z,805.89
2018-08-04T00:07:29.467Z,805.89
2018-08-04T00:07:33.808Z,805.9
2018-08-04T00:07:37.894Z,805.87
2018-08-04T00:07:42.205Z,805.85
2018-08-04T00:07:46.504Z,805.9
2018-08-04T00:07:50.695Z,805.9
2018-08-04T00:07:55.005Z,805.9
2018-08-04T00:07:59.200Z,805.82
2018-08-04T00:08:03.284Z,805.88
2018-08-04T00:08:07.376Z,805.88
2018-08-04T00:08:11.574Z,805.89
2018-08-04T00:08:15.689Z,805.9
2018-08-04T00:08:19.923Z,805.84
2018-08-04T00:08:24.236Z,805.88
2018-08-04T00:08:28.436Z,805.89
2018-08-04T00:08:32.644Z,805.81
2018-08-04T00:08:36.841Z,805.84
2018-08-04T00:08:41.036Z,805.83
2018-08-04T00:08:45.344Z,805.83
2018-08-04T00:08:49.543Z,805.84
2018-08-04T00:08:53.843Z,805.84
2018-08-04T00:08:58.146Z,805.84
2018-08-04T00:09:02.235Z,805.84
2018-08-04T00:09:06.436Z,805.83
2018-08-04T00:09:10.636Z,805.81
2018-08-04T00:09:14.835Z,805.82
2018-08-04T00:09:19.139Z,805.84
2018-08-04T00:09:23.334Z,805.82
2018-08-04T00:09:27.324Z,805.82
2018-08-04T00:09:31.630Z,805.85
2018-08-04T00:09:35.825Z,805.79
2018-08-04T00:09:40.020Z,805.8
2018-08-04T00:09:44.317Z,805.78
2018-08-04T00:09:48.622Z,805.8
2018-08-04T00:09:52.711Z,805.74
2018-08-04T00:09:56.696Z,805.8
2018-08-04T00:10:00.792Z,805.78
2018-08-04T00:10:05.108Z,805.8
2018-08-04T00:10:09.195Z,805.8
2018-08-04T00:10:13.283Z,805.79
2018-08-04T00:10:17.602Z,805.78
2018-08-04T00:10:21.898Z,805.78
2018-08-04T00:10:26.198Z,805.75
2018-08-04T00:10:30.400Z,805.79
2018-08-04T00:10:34.596Z,805.79
2018-08-04T00:10:38.899Z,805.76
2018-08-04T00:10:43.207Z,805.76
2018-08-04T00:10:47.564Z,805.74
2018-08-04T00:10:51.758Z,805.76
2018-08-04T00:10:55.952Z,805.76
2018-08-04T00:11:00.187Z,805.75
2018-08-04T00:11:04.168Z,805.78
2018-08-04T00:11:08.368Z,805.75
2018-08-04T00:11:12.572Z,805.74
2018-08-04T00:11:16.782Z,805.73
2018-08-04T00:11:21.085Z,805.71
2018-08-04T00:11:25.384Z,805.75
2018-08-04T00:11:29.587Z,805.72
2018-08-04T00:11:33.882Z,805.71
2018-08-04T00:11:38.184Z,805.69
2018-08-04T00:11:42.499Z,805.72
2018-08-04T00:11:46.843Z,805.75
2018-08-04T00:11:51.128Z,805.7
2018-08-04T00:11:55.553Z,805.71
2018-08-04T00:12:00.589Z,805.71
2018-08-04T00:12:04.691Z,805.68
2018-08-04T00:12:08.898Z,805.74
2018-08-04T00:12:13.201Z,805.69
2018-08-04T00:12:17.516Z,805.68
2018-08-04T00:12:21.721Z,805.7
2018-08-04T00:12:25.946Z,805.69
2018-08-04T00:12:30.146Z,805.66
2018-08-04T00:12:34.246Z,805.68
2018-08-04T00:12:38.343Z,805.66
2018-08-04T00:12:42.644Z,805.7
2018-08-04T00:12:46.946Z,805.67
2018-08-04T00:12:50.926Z,805.69
2018-08-04T00:12:55.237Z,805.68
2018-08-04T00:12:59.595Z,805.63
2018-08-04T00:13:03.794Z,805.69
2018-08-04T00:13:07.888Z,805.68
2018-08-04T00:13:12.100Z,805.68
2018-08-04T00:13:16.309Z,805.66
2018-08-04T00:13:20.504Z,805.66
2018-08-04T00:13:24.695Z,805.65
2018-08-04T00:13:28.897Z,805.67
2018-08-04T00:13:33.198Z,805.63
2018-08-04T00:13:37.397Z,805.62
2018-08-04T00:13:41.590Z,805.67
2018-08-04T00:13:45.901Z,805.65
2018-08-04T00:13:50.111Z,805.64
2018-08-04T00:13:54.312Z,805.65
2018-08-04T00:13:58.301Z,805.62
2018-08-04T00:14:02.502Z,805.59
2018-08-04T00:14:06.592Z,805.62
2018-08-04T00:14:10.794Z,805.58
2018-08-04T00:14:14.992Z,805.63
2018-08-04T00:14:19.192Z,805.63
2018-08-04T00:14:23.498Z,805.61
2018-08-04T00:14:27.430Z,805.55
2018-08-04T00:14:31.618Z,805.6
2018-08-04T00:14:35.928Z,805.61
2018-08-04T00:14:40.139Z,805.61
2018-08-04T00:14:44.342Z,805.62
2018-08-04T00:14:48.643Z,805.62
2018-08-04T00:14:52.835Z,805.55
2018-08-04T00:14:56.819Z,805.54
2018-08-04T00:15:01.020Z,805.53
2018-08-04T00:15:05.231Z,805.58
2018-08-04T00:15:09.430Z,805.57
2018-08-04T00:15:13.627Z,805.58
2018-08-04T00:15:17.829Z,805.59
2018-08-04T00:15:22.145Z,805.59
2018-08-04T00:15:26.454Z,805.56
2018-08-04T00:15:30.758Z,805.56
2018-08-04T00:15:34.850Z,805.55
2018-08-04T00:15:39.156Z,805.56
2018-08-04T00:15:43.357Z,805.55
2018-08-04T00:15:47.553Z,805.5
2018-08-04T00:15:51.846Z,805.55
2018-08-04T00:15:56.057Z,805.54
2018-08-04T00:16:00.149Z,805.56
2018-08-04T00:16:04.241Z,805.55
2018-08-04T00:16:08.441Z,805.54
2018-08-04T00:16:12.757Z,805.54
2018-08-04T00:16:16.852Z,805.42
2018-08-04T00:16:21.057Z,805.45
2018-08-04T00:16:25.407Z,805.46
2018-08-04T00:16:29.599Z,805.54
2018-08-04T00:16:33.791Z,805.54
2018-08-04T00:16:38.092Z,805.52
2018-08-04T00:16:42.397Z,805.52
2018-08-04T00:16:46.595Z,805.52
2018-08-04T00:16:50.897Z,805.52
2018-08-04T00:16:55.089Z,805.51
2018-08-04T00:16:59.171Z,805.48
2018-08-04T00:17:03.270Z,805.45
2018-08-04T00:17:07.469Z,805.49
2018-08-04T00:17:11.565Z,805.51
2018-08-04T00:17:15.874Z,805.47
2018-08-04T00:17:20.082Z,805.44
2018-08-04T00:17:24.272Z,805.51
2018-08-04T00:17:28.581Z,805.52
2018-08-04T00:17:32.893Z,805.52
2018-08-04T00:17:37.087Z,805.5
2018-08-04T00:17:41.401Z,805.49
2018-08-04T00:17:45.718Z,805.51
2018-08-04T00:17:50.024Z,805.48
2018-08-04T00:17:54.332Z,805.46
2018-08-04T00:17:58.636Z,805.51
2018-08-04T00:18:02.727Z,805.48
2018-08-04T00:18:06.930Z,805.47
2018-08-04T00:18:11.232Z,805.49
2018-08-04T00:18:15.324Z,805.48
2018-08-04T00:18:19.630Z,805.51
2018-08-04T00:18:23.830Z,805.44
2018-08-04T00:18:28.026Z,805.51
2018-08-04T00:18:32.230Z,805.48
2018-08-04T00:18:36.317Z,805.43
2018-08-04T00:18:40.637Z,805.5
2018-08-04T00:18:44.830Z,805.47
2018-08-04T00:18:48.926Z,805.44
2018-08-04T00:18:53.022Z,805.48
2018-08-04T00:18:57.220Z,805.48
2018-08-04T00:19:01.527Z,805.5
2018-08-04T00:19:05.725Z,805.41
2018-08-04T00:19:10.030Z,805.46
2018-08-04T00:19:14.334Z,805.52
2018-08-04T00:19:18.642Z,805.47
2018-08-04T00:19:22.839Z,805.42
2018-08-04T00:19:27.032Z,805.47
2018-08-04T00:19:31.361Z,805.49
2018-08-04T00:19:35.457Z,805.48
2018-08-04T00:19:39.759Z,805.48
2018-08-04T00:19:43.959Z,805.47
2018-08-04T00:19:48.269Z,805.46
2018-08-04T00:19:52.467Z,805.49
2018-08-04T00:19:56.669Z,805.5
2018-08-04T00:20:00.874Z,805.49
2018-08-04T00:20:04.869Z,805.54
2018-08-04T00:20:09.173Z,805.49
2018-08-04T00:20:13.380Z,805.46
2018-08-04T00:20:17.580Z,805.49
2018-08-04T00:20:21.893Z,805.47
2018-08-04T00:20:26.095Z,805.49
2018-08-04T00:20:30.295Z,805.51
2018-08-04T00:20:34.385Z,805.51
2018-08-04T00:20:38.682Z,805.49
2018-08-04T00:20:42.768Z,805.53
2018-08-04T00:20:46.865Z,805.52
2018-08-04T00:20:51.169Z,805.51
2018-08-04T00:20:55.363Z,805.49
2018-08-04T00:20:59.567Z,805.53
2018-08-04T00:21:03.665Z,805.52
2018-08-04T00:21:07.778Z,805.47
2018-08-04T00:21:11.867Z,805.51
2018-08-04T00:21:16.064Z,805.51
2018-08-04T00:21:20.254Z,805.51
2018-08-04T00:21:24.449Z,805.54
2018-08-04T00:21:28.748Z,805.54
2018-08-04T00:21:32.941Z,805.52
2018-08-04T00:21:37.140Z,805.53
2018-08-04T00:21:41.338Z,805.53
2018-08-04T00:21:45.645Z,805.53
2018-08-04T00:21:49.947Z,805.57
2018-08-04T00:21:54.138Z,805.55
2018-08-04T00:21:58.228Z,805.54
2018-08-04T00:22:02.527Z,805.52
2018-08-04T00:22:06.834Z,805.55
2018-08-04T00:22:10.970Z,805.56
2018-08-04T00:22:15.270Z,805.51
2018-08-04T00:22:19.576Z,805.49
2018-08-04T00:22:23.873Z,805.57
2018-08-04T00:22:27.972Z,805.54
2018-08-04T00:22:32.279Z,805.53
2018-08-04T00:22:36.366Z,805.58
2018-08-04T00:22:40.558Z,805.57
2018-08-04T00:22:44.757Z,805.54
2018-08-04T00:22:48.862Z,805.58
2018-08-04T00:22:52.956Z,805.51
2018-08-04T00:22:57.153Z,805.56
2018-08-04T00:23:01.240Z,805.57
2018-08-04T00:23:05.449Z,805.55
2018-08-04T00:23:09.541Z,805.57
2018-08-04T00:23:13.793Z,805.54
2018-08-04T00:23:17.984Z,805.56
2018-08-04T00:23:22.176Z,805.54
2018-08-04T00:23:26.482Z,805.53
2018-08-04T00:23:30.788Z,805.58
2018-08-04T00:23:34.979Z,805.52
2018-08-04T00:23:38.962Z,805.59
2018-08-04T00:23:43.268Z,805.57
2018-08-04T00:23:47.473Z,805.5
2018-08-04T00:23:51.574Z,805.58
2018-08-04T00:23:55.780Z,805.52
2018-08-04T00:23:59.875Z,805.56
2018-08-04T00:24:03.914Z,805.56
2018-08-04T00:24:08.114Z,805.58
2018-08-04T00:24:12.308Z,805.56
2018-08-04T00:24:16.513Z,805.55
2018-08-04T00:24:20.612Z,805.52
2018-08-04T00:24:24.927Z,805.54
2018-08-04T00:24:29.270Z,805.59
2018-08-04T00:24:33.564Z,805.54
2018-08-04T00:24:37.772Z,805.59
2018-08-04T00:24:41.864Z,805.55
2018-08-04T00:24:46.064Z,805.56
2018-08-04T00:24:50.366Z,805.57
2018-08-04T00:24:54.663Z,805.59
2018-08-04T00:24:58.964Z,805.54
2018-08-04T00:25:03.276Z,805.57
2018-08-04T00:25:07.605Z,805.56
2018-08-04T00:25:11.913Z,805.59
2018-08-04T00:25:16.269Z,805.54
2018-08-04T00:25:20.565Z,805.55
2018-08-04T00:25:24.873Z,805.55
2018-08-04T00:25:28.964Z,805.56
2018-08-04T00:25:33.267Z,805.56
2018-08-04T00:25:37.457Z,805.55
2018-08-04T00:25:41.775Z,805.6
2018-08-04T00:25:46.076Z,805.53
2018-08-04T00:25:50.163Z,805.57
2018-08-04T00:25:54.363Z,805.51
2018-08-04T00:25:58.558Z,805.56
2018-08-04T00:26:02.847Z,805.57
2018-08-04T00:26:06.934Z,805.57
2018-08-04T00:26:11.024Z,805.55
2018-08-04T00:26:15.232Z,805.52
2018-08-04T00:26:19.542Z,805.54
2018-08-04T00:26:23.738Z,805.56
2018-08-04T00:26:27.832Z,805.54
2018-08-04T00:26:32.138Z,805.56
2018-08-04T00:26:36.331Z,805.61
2018-08-04T00:26:40.528Z,805.59
2018-08-04T00:26:44.634Z,805.58
2018-08-04T00:26:48.931Z,805.57
2018-08-04T00:26:53.020Z,805.58
2018-08-04T00:26:57.320Z,805.55
2018-08-04T00:27:01.536Z,805.6
2018-08-04T00:27:05.634Z,805.59
2018-08-04T00:27:09.940Z,805.61
2018-08-04T00:27:14.245Z,805.62
2018-08-04T00:27:18.330Z,805.6
2018-08-04T00:27:22.323Z,805.61
2018-08-04T00:27:26.303Z,805.58
2018-08-04T00:27:30.504Z,805.59
2018-08-04T00:27:34.806Z,805.63
2018-08-04T00:27:38.998Z,805.61
2018-08-04T00:27:43.095Z,805.59
2018-08-04T00:27:47.286Z,805.64
2018-08-04T00:27:51.380Z,805.58
2018-08-04T00:27:55.588Z,805.6
2018-08-04T00:27:59.683Z,805.61
2018-08-04T00:28:03.773Z,805.63
2018-08-04T00:28:07.863Z,805.61
2018-08-04T00:28:12.055Z,805.57
2018-08-04T00:28:16.356Z,805.63
2018-08-04T00:28:20.660Z,805.62
2018-08-04T00:28:24.854Z,805.62
2018-08-04T00:28:29.047Z,805.65
2018-08-04T00:28:33.357Z,805.64
2018-08-04T00:28:37.662Z,805.65
2018-08-04T00:28:41.753Z,805.61
2018-08-04T00:28:45.950Z,805.63
2018-08-04T00:28:50.143Z,805.65
2018-08-04T00:28:54.016Z,805.65
2018-08-04T00:28:58.108Z,805.63
2018-08-04T00:29:02.413Z,805.62
2018-08-04T00:29:06.500Z,805.63
2018-08-04T00:29:10.807Z,805.65
2018-08-04T00:29:14.910Z,805.63
2018-08-04T00:29:19.231Z,805.65
2018-08-04T00:29:23.317Z,805.61
2018-08-04T00:29:27.411Z,805.66
2018-08-04T00:29:31.617Z,805.68
2018-08-04T00:29:35.916Z,805.62
2018-08-04T00:29:40.019Z,805.63
2018-08-04T00:29:44.208Z,805.66
2018-08-04T00:29:48.516Z,805.64
2018-08-04T00:29:52.498Z,805.67
2018-08-04T00:29:56.690Z,805.66
2018-08-04T00:30:00.801Z,805.65
2018-08-04T00:30:04.782Z,805.65
2018-08-04T00:30:08.876Z,805.62
2018-08-04T00:30:12.971Z,805.64
2018-08-04T00:30:17.167Z,805.66
2018-08-04T00:30:21.374Z,805.66
2018-08-04T00:30:25.568Z,805.61
2018-08-04T00:30:29.881Z,805.63
2018-08-04T00:30:33.976Z,805.69
2018-08-04T00:30:38.294Z,805.67
2018-08-04T00:30:42.606Z,805.67
2018-08-04T00:30:46.796Z,805.66
2018-08-04T00:30:50.989Z,805.66
2018-08-04T00:30:55.291Z,805.67
2018-08-04T00:30:59.487Z,805.62
2018-08-04T00:31:03.577Z,805.63
2018-08-04T00:31:07.775Z,805.62
2018-08-04T00:31:12.077Z,805.65
2018-08-04T00:31:16.381Z,805.68
2018-08-04T00:31:20.472Z,805.63
2018-08-04T00:31:24.569Z,805.65
2018-08-04T00:31:28.879Z,805.68
2018-08-04T00:31:32.971Z,805.65
2018-08-04T00:31:36.952Z,805.65
2018-08-04T00:31:41.154Z,805.64
2018-08-04T00:31:45.517Z,805.67
2018-08-04T00:31:49.826Z,805.64
2018-08-04T00:31:53.913Z,805.66
2018-08-04T00:31:58.115Z,805.67
2018-08-04T00:32:02.312Z,805.65
2018-08-04T00:32:06.403Z,805.66
2018-08-04T00:32:10.617Z,805.65
2018-08-04T00:32:14.604Z,805.66
2018-08-04T00:32:18.919Z,805.66
2018-08-04T00:32:23.109Z,805.67
2018-08-04T00:32:27.196Z,805.65
2018-08-04T00:32:31.495Z,805.67
2018-08-04T00:32:35.592Z,805.67
2018-08-04T00:32:39.904Z,805.65
2018-08-04T00:32:44.100Z,805.63
2018-08-04T00:32:48.190Z,805.64
2018-08-04T00:32:52.391Z,805.66
2018-08-04T00:32:56.701Z,805.61
2018-08-04T00:33:00.793Z,805.67
2018-08-04T00:33:04.775Z,805.65
2018-08-04T00:33:08.871Z,805.67
2018-08-04T00:33:13.072Z,805.66
2018-08-04T00:33:17.372Z,805.67
2018-08-04T00:33:21.565Z,805.64
2018-08-04T00:33:25.662Z,805.62
2018-08-04T00:33:29.863Z,805.67
2018-08-04T00:33:34.062Z,805.64
2018-08-04T00:33:38.258Z,805.62
2018-08-04T00:33:42.462Z,805.63
2018-08-04T00:33:46.773Z,805.63
2018-08-04T00:33:50.975Z,805.66
2018-08-04T00:33:55.060Z,805.67
2018-08-04T00:33:59.258Z,805.67
2018-08-04T00:34:03.290Z,805.66
2018-08-04T00:34:07.586Z,805.65
2018-08-04T00:34:11.789Z,805.67
2018-08-04T00:34:15.977Z,805.67
2018-08-04T00:34:20.279Z,805.66
2018-08-04T00:34:24.473Z,805.65
2018-08-04T00:34:28.678Z,805.68
2018-08-04T00:34:32.982Z,805.67
2018-08-04T00:34:37.183Z,805.64
2018-08-04T00:34:41.478Z,805.62
2018-08-04T00:34:45.780Z,805.66
2018-08-04T00:34:50.092Z,805.7
2018-08-04T00:34:54.392Z,805.66
2018-08-04T00:34:58.701Z,805.68
2018-08-04T00:35:02.797Z,805.71
2018-08-04T00:35:06.889Z,805.67
2018-08-04T00:35:10.975Z,805.67
2018-08-04T00:35:15.084Z,805.66
2018-08-04T00:35:19.188Z,805.67
2018-08-04T00:35:23.432Z,805.67
2018-08-04T00:35:27.631Z,805.68
2018-08-04T00:35:31.946Z,805.7
2018-08-04T00:35:36.150Z,805.67
2018-08-04T00:35:40.455Z,805.69
2018-08-04T00:35:44.438Z,805.68
2018-08-04T00:35:48.639Z,805.69
2018-08-04T00:35:52.729Z,805.66
2018-08-04T00:35:57.031Z,805.71
2018-08-04T00:36:01.231Z,805.7
2018-08-04T00:36:05.685Z,805.69
2018-08-04T00:36:09.771Z,805.66
2018-08-04T00:36:13.860Z,805.68
2018-08-04T00:36:18.054Z,805.68
2018-08-04T00:36:22.141Z,805.66
2018-08-04T00:36:26.021Z,805.68
2018-08-04T00:36:30.214Z,805.69
2018-08-04T00:36:34.538Z,805.66
2018-08-04T00:36:38.416Z,805.71
2018-08-04T00:36:42.712Z,805.65
2018-08-04T00:36:46.924Z,805.7
2018-08-04T00:36:51.224Z,805.69
2018-08-04T00:36:55.307Z,805.65
2018-08-04T00:36:59.502Z,805.68
2018-08-04T00:37:03.596Z,805.7
2018-08-04T00:37:07.795Z,805.71
2018-08-04T00:37:11.996Z,805.69
2018-08-04T00:37:16.125Z,805.7
2018-08-04T00:37:20.425Z,805.68
2018-08-04T00:37:24.623Z,805.69
2018-08-04T00:37:28.922Z,805.72
2018-08-04T00:37:33.220Z,805.73
2018-08-04T00:37:37.525Z,805.69
2018-08-04T00:37:41.885Z,805.69
2018-08-04T00:37:46.097Z,805.74
2018-08-04T00:37:50.406Z,805.7
2018-08-04T00:37:54.613Z,805.72
2018-08-04T00:37:58.809Z,805.73
2018-08-04T00:38:03.010Z,805.71
2018-08-04T00:38:07.206Z,805.68
2018-08-04T00:38:11.405Z,805.74
2018-08-04T00:38:15.390Z,805.73
2018-08-04T00:38:19.700Z,805.73
2018-08-04T00:38:23.889Z,805.73
2018-08-04T00:38:28.082Z,805.72
2018-08-04T00:38:32.399Z,805.69
2018-08-04T00:38:36.703Z,805.71
2018-08-04T00:38:40.895Z,805.71
2018-08-04T00:38:45.097Z,805.74
2018-08-04T00:38:49.083Z,805.72
2018-08-04T00:38:53.379Z,805.74
2018-08-04T00:38:57.574Z,805.7
2018-08-04T00:39:01.671Z,805.76
2018-08-04T00:39:06.020Z,805.73
2018-08-04T00:39:10.229Z,805.74
2018-08-04T00:39:14.538Z,805.73
2018-08-04T00:39:18.739Z,805.71
2018-08-04T00:39:23.041Z,805.7
2018-08-04T00:39:27.129Z,805.72
2018-08-04T00:39:31.216Z,805.76
2018-08-04T00:39:35.517Z,805.71
2018-08-04T00:39:39.827Z,805.75
2018-08-04T00:39:44.139Z,805.75
2018-08-04T00:39:48.329Z,805.75
2018-08-04T00:39:52.534Z,805.77
2018-08-04T00:39:56.836Z,805.74
2018-08-04T00:40:00.921Z,805.73
2018-08-04T00:40:04.917Z,805.76
2018-08-04T00:40:09.216Z,805.76
2018-08-04T00:40:13.517Z,805.76
2018-08-04T00:40:17.708Z,805.77
2018-08-04T00:40:21.900Z,805.76
2018-08-04T00:40:26.100Z,805.77
2018-08-04T00:40:30.190Z,805.75
2018-08-04T00:40:34.389Z,805.76
2018-08-04T00:40:38.593Z,805.78
2018-08-04T00:40:42.905Z,805.78
2018-08-04T00:40:46.996Z,805.77
2018-08-04T00:40:51.197Z,805.79
2018-08-04T00:40:55.399Z,805.75
2018-08-04T00:40:59.593Z,805.78
2018-08-04T00:41:03.691Z,805.78
2018-08-04T00:41:07.887Z,805.72
2018-08-04T00:41:12.093Z,805.79
2018-08-04T00:41:16.400Z,805.74
2018-08-04T00:41:20.427Z,805.78
2018-08-04T00:41:24.746Z,805.78
2018-08-04T00:41:28.940Z,805.8
2018-08-04T00:41:33.131Z,805.78
2018-08-04T00:41:37.327Z,805.77
2018-08-04T00:41:41.642Z,805.79
2018-08-04T00:41:45.843Z,805.79
2018-08-04T00:41:50.036Z,805.78
2018-08-04T00:41:54.023Z,805.82
2018-08-04T00:41:58.216Z,805.82
2018-08-04T00:42:02.421Z,805.83
2018-08-04T00:42:06.621Z,805.79
2018-08-04T00:42:10.848Z,805.83
2018-08-04T00:42:15.151Z,805.79
2018-08-04T00:42:19.237Z,805.81
2018-08-04T00:42:23.336Z,805.81
2018-08-04T00:42:27.539Z,805.85
2018-08-04T00:42:31.738Z,805.79
2018-08-04T00:42:35.733Z,805.83
2018-08-04T00:42:39.933Z,805.82
2018-08-04T00:42:44.247Z,805.85
2018-08-04T00:42:48.340Z,805.79
2018-08-04T00:42:52.543Z,805.82
2018-08-04T00:42:56.775Z,805.82
2018-08-04T00:43:00.982Z,805.85
2018-08-04T00:43:05.295Z,805.84
2018-08-04T00:43:09.601Z,805.85
2018-08-04T00:43:13.908Z,805.84
2018-08-04T00:43:18.109Z,805.83
2018-08-04T00:43:22.462Z,805.85
2018-08-04T00:43:26.772Z,805.87
2018-08-04T00:43:30.969Z,805.84
2018-08-04T00:43:35.170Z,805.85
2018-08-04T00:43:39.384Z,805.8
2018-08-04T00:43:43.579Z,805.86
2018-08-04T00:43:47.775Z,805.85
2018-08-04T00:43:51.977Z,805.87
2018-08-04T00:43:56.079Z,805.86
2018-08-04T00:44:00.382Z,805.87
2018-08-04T00:44:04.264Z,805.89
2018-08-04T00:44:08.463Z,805.87
2018-08-04T00:44:12.759Z,805.85
2018-08-04T00:44:17.063Z,805.86
2018-08-04T00:44:21.377Z,805.87
2018-08-04T00:44:25.466Z,805.88
2018-08-04T00:44:29.666Z,805.86
2018-08-04T00:44:33.866Z,805.87
2018-08-04T00:44:38.181Z,805.87
2018-08-04T00:44:42.371Z,805.84
2018-08-04T00:44:46.564Z,805.86
2018-08-04T00:44:50.862Z,805.86
2018-08-04T00:44:54.850Z,805.83
2018-08-04T00:44:59.041Z,805.86
2018-08-04T00:45:03.347Z,805.86
2018-08-04T00:45:07.657Z,805.88
2018-08-04T00:45:11.962Z,805.92
2018-08-04T00:45:16.059Z,805.89
2018-08-04T00:45:20.252Z,805.9
2018-08-04T00:45:24.504Z,805.9
2018-08-04T00:45:28.825Z,805.88
2018-08-04T00:45:32.913Z,805.89
2018-08-04T00:45:37.108Z,805.89
2018-08-04T00:45:41.305Z,805.88
2018-08-04T00:45:45.291Z,805.89
2018-08-04T00:45:49.591Z,805.85
2018-08-04T00:45:53.894Z,805.9
2018-08-04T00:45:58.087Z,805.89
2018-08-04T00:46:02.389Z,805.88
2018-08-04T00:46:06.480Z,805.9
2018-08-04T00:46:10.788Z,805.87
2018-08-04T00:46:15.096Z,805.89
2018-08-04T00:46:19.285Z,805.9
2018-08-04T00:46:23.487Z,805.91
2018-08-04T00:46:27.573Z,805.86
2018-08-04T00:46:31.664Z,805.89
2018-08-04T00:46:35.970Z,805.85
2018-08-04T00:46:40.273Z,805.9
2018-08-04T00:46:44.471Z,805.89
2018-08-04T00:46:48.665Z,805.89
2018-08-04T00:46:52.757Z,805.86
2018-08-04T00:46:56.849Z,805.91
2018-08-04T00:47:01.051Z,805.9
2018-08-04T00:47:05.459Z,805.91
2018-08-04T00:47:09.560Z,805.93
2018-08-04T00:47:13.658Z,805.92
2018-08-04T00:47:17.899Z,805.92
2018-08-04T00:47:22.094Z,805.91
2018-08-04T00:47:26.404Z,805.93
2018-08-04T00:47:30.699Z,805.91
2018-08-04T00:47:34.895Z,805.92
2018-08-04T00:47:38.983Z,805.91
2018-08-04T00:47:43.187Z,805.91
2018-08-04T00:47:47.283Z,805.89
2018-08-04T00:47:51.474Z,805.94
2018-08-04T00:47:55.562Z,805.91
2018-08-04T00:47:59.660Z,805.91
2018-08-04T00:48:04.069Z,805.95
2018-08-04T00:48:08.372Z,805.93
2018-08-04T00:48:12.565Z,805.94
2018-08-04T00:48:16.656Z,805.96
2018-08-04T00:48:20.745Z,805.95
2018-08-04T00:48:25.036Z,805.95
2018-08-04T00:48:29.235Z,805.92
2018-08-04T00:48:33.431Z,805.92
2018-08-04T00:48:37.622Z,805.96
2018-08-04T00:48:41.603Z,805.97
2018-08-04T00:48:45.698Z,805.95
2018-08-04T00:48:49.788Z,805.93
2018-08-04T00:48:53.990Z,805.96
2018-08-04T00:48:58.079Z,805.97
2018-08-04T00:49:02.387Z,805.94
2018-08-04T00:49:06.590Z,805.98
2018-08-04T00:49:10.787Z,805.98
2018-08-04T00:49:15.088Z,805.98
2018-08-04T00:49:19.282Z,805.99
2018-08-04T00:49:23.481Z,805.96
2018-08-04T00:49:27.778Z,805.98
2018-08-04T00:49:31.879Z,805.97
2018-08-04T00:49:36.087Z,805.98
2018-08-04T00:49:40.285Z,805.94
2018-08-04T00:49:44.627Z,805.96
2018-08-04T00:49:48.821Z,805.94
2018-08-04T00:49:53.123Z,805.99
2018-08-04T00:49:57.210Z,806
2018-08-04T00:50:01.518Z,806.02
2018-08-04T00:50:05.715Z,806.01
2018-08-04T00:50:09.707Z,806.03
2018-08-04T00:50:13.799Z,806.01
2018-08-04T00:50:18.107Z,806.02
2018-08-04T00:50:22.090Z,806.05
2018-08-04T00:50:26.406Z,806.02
2018-08-04T00:50:30.715Z,806
2018-08-04T00:50:35.018Z,806.02
2018-08-04T00:50:39.209Z,806.03
2018-08-04T00:50:43.403Z,806.05
2018-08-04T00:50:47.714Z,806.02
2018-08-04T00:50:52.020Z,806.04
2018-08-04T00:50:56.215Z,806.01
2018-08-04T00:51:00.408Z,806.01
2018-08-04T00:51:04.500Z,805.99
2018-08-04T00:51:08.707Z,806.02
2018-08-04T00:51:12.899Z,806.06
2018-08-04T00:51:17.006Z,806.03
2018-08-04T00:51:21.324Z,806.01
2018-08-04T00:51:25.416Z,806.06
2018-08-04T00:51:29.725Z,806.06
2018-08-04T00:51:33.920Z,806.07
2018-08-04T00:51:38.115Z,806.08
2018-08-04T00:51:42.414Z,806.04
2018-08-04T00:51:46.708Z,806.07
2018-08-04T00:51:50.896Z,806.1
2018-08-04T00:51:54.988Z,806.06
2018-08-04T00:51:59.191Z,806.06
2018-08-04T00:52:03.545Z,806.08
2018-08-04T00:52:07.752Z,806.01
2018-08-04T00:52:11.948Z,806.07
2018-08-04T00:52:15.931Z,806.1
2018-08-04T00:52:20.240Z,806.09
2018-08-04T00:52:24.221Z,806.09
2018-08-04T00:52:28.522Z,806.09
2018-08-04T00:52:32.829Z,806.1
2018-08-04T00:52:37.030Z,806.08